createdAt,value
2018-09-05T00:00:01.650Z,18.70
2018-09-05T00:02:30.428Z,18.70
2018-09-05T00:04:59.217Z,18.60
2018-09-05T00:07:27.956Z,18.60
2018-09-05T00:09:56.681Z,18.60
2018-09-05T00:12:25.418Z,18.50
2018-09-05T00:14:54.224Z,18.40
2018-09-05T00:17:22.972Z,18.40
2018-09-05T00:19:51.770Z,18.40
2018-09-05T00:22:20.614Z,18.40
2018-09-05T00:24:49.353Z,18.40
2018-09-05T00:27:18.138Z,18.30
2018-09-05T00:29:46.901Z,18.30
2018-09-05T00:32:15.670Z,18.40
2018-09-05T00:34:44.380Z,18.40
2018-09-05T00:37:13.314Z,18.40
2018-09-05T00:39:42.065Z,18.30
2018-09-05T00:42:10.852Z,18.30
2018-09-05T00:44:39.574Z,18.30
2018-09-05T00:47:08.298Z,18.30
2018-09-05T00:49:37.009Z,18.30
2018-09-05T00:52:05.800Z,18.30
2018-09-05T00:54:34.536Z,18.30
2018-09-05T00:57:03.262Z,18.20
2018-09-05T00:59:31.987Z,18.30
2018-09-05T01:02:00.649Z,18.20
2018-09-05T01:04:29.381Z,18.20
2018-09-05T01:06:58.200Z,18.20
2018-09-05T01:09:26.931Z,18.20
2018-09-05T01:12:01.703Z,18.00
2018-09-05T01:14:35.558Z,18.00
2018-09-05T01:17:09.899Z,18.00
2018-09-05T01:19:44.656Z,17.90
2018-09-05T01:22:17.800Z,18.00
2018-09-05T01:24:52.013Z,18.00
2018-09-05T01:27:25.553Z,18.00
2018-09-05T01:29:59.718Z,17.90
2018-09-05T01:32:33.709Z,17.80
2018-09-05T01:35:06.714Z,17.80
2018-09-05T01:37:39.649Z,17.80
2018-09-05T01:40:16.653Z,17.70
2018-09-05T01:42:53.103Z,17.70
2018-09-05T01:45:26.315Z,17.80
2018-09-05T01:47:59.735Z,17.70
2018-09-05T01:50:36.904Z,17.70
2018-09-05T01:53:11.285Z,17.70
2018-09-05T01:55:45.280Z,17.60
2018-09-05T01:58:18.972Z,17.50
2018-09-05T02:00:52.432Z,17.50
2018-09-05T02:03:26.564Z,17.40
2018-09-05T02:05:59.822Z,17.40
2018-09-05T02:08:33.691Z,17.40
2018-09-05T02:11:07.013Z,17.40
2018-09-05T02:13:40.145Z,17.50
2018-09-05T02:16:13.290Z,17.40
2018-09-05T02:18:47.935Z,17.40
2018-09-05T02:21:20.907Z,17.40
2018-09-05T02:23:53.801Z,17.40
2018-09-05T02:26:26.606Z,17.40
2018-09-05T02:29:02.845Z,17.50
2018-09-05T02:31:36.833Z,17.30
2018-09-05T02:34:11.994Z,17.30
2018-09-05T02:36:45.762Z,17.30
2018-09-05T02:39:23.379Z,17.30
2018-09-05T02:41:57.694Z,17.40
2018-09-05T02:44:30.982Z,17.30
2018-09-05T02:47:04.496Z,17.20
2018-09-05T02:49:38.466Z,17.20
2018-09-05T02:52:12.749Z,17.20
2018-09-05T02:54:46.826Z,17.20
2018-09-05T02:57:19.714Z,17.10
2018-09-05T02:59:52.643Z,17.00
2018-09-05T03:02:25.410Z,17.00
2018-09-05T03:04:59.211Z,16.90
2018-09-05T03:07:31.930Z,16.90
2018-09-05T03:10:13.432Z,16.90
2018-09-05T03:12:46.245Z,16.90
2018-09-05T03:15:17.694Z,17.00
2018-09-05T03:17:50.364Z,17.00
2018-09-05T03:20:23.084Z,16.90
2018-09-05T03:22:55.497Z,16.90
2018-09-05T03:25:27.823Z,16.90
2018-09-05T03:28:00.471Z,17.00
2018-09-05T03:30:32.707Z,16.90
2018-09-05T03:33:05.383Z,16.90
2018-09-05T03:35:38.180Z,16.90
2018-09-05T03:38:10.647Z,16.90
2018-09-05T03:40:44.276Z,16.80
2018-09-05T03:43:14.238Z,16.70
2018-09-05T03:45:44.728Z,16.70
2018-09-05T03:48:16.228Z,16.60
2018-09-05T03:50:48.210Z,16.50
2018-09-05T03:53:19.033Z,16.60
2018-09-05T03:55:52.707Z,16.60
2018-09-05T03:58:25.271Z,16.70
2018-09-05T04:00:56.996Z,16.70
2018-09-05T04:03:30.058Z,16.70
2018-09-05T04:05:58.890Z,16.70
2018-09-05T04:08:27.662Z,16.50
2018-09-05T04:10:56.398Z,16.50
2018-09-05T04:13:25.219Z,16.50
2018-09-05T04:15:53.998Z,16.60
2018-09-05T04:18:22.738Z,16.60
2018-09-05T04:20:51.722Z,16.60
2018-09-05T04:23:20.456Z,16.60
2018-09-05T04:25:49.213Z,16.60
2018-09-05T04:28:17.932Z,16.50
2018-09-05T04:30:46.661Z,16.40
2018-09-05T04:33:15.467Z,16.60
2018-09-05T04:35:44.294Z,16.60
2018-09-05T04:38:13.061Z,16.50
2018-09-05T04:40:41.904Z,16.60
2018-09-05T04:43:10.692Z,16.60
2018-09-05T04:45:39.457Z,16.50
2018-09-05T04:48:08.156Z,16.30
2018-09-05T04:50:37.051Z,16.30
2018-09-05T04:53:05.927Z,16.40
2018-09-05T04:55:34.830Z,16.40
2018-09-05T04:58:03.564Z,16.30
2018-09-05T05:00:32.297Z,16.40
2018-09-05T05:03:01.204Z,16.40
2018-09-05T05:05:30.006Z,16.40
2018-09-05T05:07:58.840Z,16.40
2018-09-05T05:10:27.547Z,16.40
2018-09-05T05:12:56.404Z,16.50
2018-09-05T05:15:25.167Z,16.50
2018-09-05T05:17:53.946Z,16.40
2018-09-05T05:20:22.811Z,16.50
2018-09-05T05:22:51.597Z,16.50
2018-09-05T05:25:20.313Z,16.60
2018-09-05T05:27:49.097Z,16.60
2018-09-05T05:30:17.837Z,16.70
2018-09-05T05:32:46.715Z,16.80
2018-09-05T05:35:15.438Z,16.90
2018-09-05T05:37:44.227Z,16.70
2018-09-05T05:40:12.972Z,16.80
2018-09-05T05:42:41.776Z,16.80
2018-09-05T05:45:10.529Z,16.80
2018-09-05T05:47:39.218Z,16.80
2018-09-05T05:50:08.125Z,16.90
2018-09-05T05:52:36.845Z,17.00
2018-09-05T05:55:05.707Z,17.00
2018-09-05T05:57:34.382Z,16.90
2018-09-05T06:00:03.105Z,16.90
2018-09-05T06:02:31.939Z,17.00
2018-09-05T06:05:00.667Z,17.00
2018-09-05T06:07:29.423Z,17.10
2018-09-05T06:09:58.171Z,17.10
2018-09-05T06:12:26.968Z,17.10
2018-09-05T06:14:55.699Z,17.20
2018-09-05T06:17:24.481Z,17.30
2018-09-05T06:19:53.220Z,17.50
2018-09-05T06:22:22.072Z,17.60
2018-09-05T06:24:50.824Z,17.80
2018-09-05T06:27:19.605Z,17.80
2018-09-05T06:29:48.450Z,17.90
2018-09-05T06:32:17.205Z,17.90
2018-09-05T06:34:45.987Z,18.00
2018-09-05T06:37:14.719Z,18.10
2018-09-05T06:39:44.312Z,18.20
2018-09-05T06:42:14.496Z,18.30
2018-09-05T06:44:43.320Z,18.50
2018-09-05T06:47:12.073Z,18.60
2018-09-05T06:49:40.957Z,18.60
2018-09-05T06:52:09.742Z,18.50
2018-09-05T06:54:38.552Z,18.60
2018-09-05T06:57:07.323Z,18.70
2018-09-05T06:59:36.186Z,18.90
2018-09-05T07:02:05.218Z,19.10
2018-09-05T07:04:34.006Z,19.10
2018-09-05T07:07:02.946Z,19.20
2018-09-05T07:09:31.941Z,19.40
2018-09-05T07:12:01.252Z,19.60
2018-09-05T07:14:30.049Z,19.80
2018-09-05T07:16:58.799Z,19.90
2018-09-05T07:19:27.684Z,19.90
2018-09-05T07:22:01.627Z,19.90
2018-09-05T07:24:30.309Z,20.00
2018-09-05T07:26:59.076Z,20.30
2018-09-05T07:29:27.821Z,20.40
2018-09-05T07:31:56.631Z,20.50
2018-09-05T07:34:25.412Z,20.70
2018-09-05T07:36:54.233Z,20.90
2018-09-05T07:39:22.954Z,21.10
2018-09-05T07:41:51.915Z,21.10
2018-09-05T07:44:20.747Z,21.20
2018-09-05T07:46:49.537Z,21.20
2018-09-05T07:49:21.029Z,21.10
2018-09-05T07:51:49.821Z,21.20
2018-09-05T07:54:18.581Z,21.30
2018-09-05T07:56:47.341Z,21.70
2018-09-05T07:59:16.262Z,21.90
2018-09-05T08:01:45.038Z,22.10
2018-09-05T08:04:13.838Z,22.40
2018-09-05T08:06:44.364Z,22.70
2018-09-05T08:09:13.148Z,22.90
2018-09-05T08:11:41.991Z,22.90
2018-09-05T08:14:10.849Z,23.00
2018-09-05T08:16:39.640Z,23.20
2018-09-05T08:19:08.437Z,23.30
2018-09-05T08:21:37.312Z,23.40
2018-09-05T08:24:06.156Z,23.30
2018-09-05T08:26:34.936Z,23.30
2018-09-05T08:29:03.816Z,23.60
2018-09-05T08:31:32.587Z,23.90
2018-09-05T08:34:01.389Z,24.20
2018-09-05T08:36:30.332Z,24.50
2018-09-05T08:38:59.409Z,24.70
2018-09-05T08:41:28.526Z,24.90
2018-09-05T08:43:59.399Z,25.00
2018-09-05T08:46:29.504Z,25.10
2018-09-05T08:48:58.871Z,25.10
2018-09-05T08:51:29.067Z,25.30
2018-09-05T08:54:01.325Z,25.60
2018-09-05T08:56:31.004Z,25.90
2018-09-05T08:59:00.842Z,26.30
2018-09-05T09:01:31.669Z,26.40
2018-09-05T09:04:00.508Z,26.70
2018-09-05T09:06:31.663Z,26.90
2018-09-05T09:09:01.352Z,27.10
2018-09-05T09:11:32.886Z,27.40
2018-09-05T09:14:06.801Z,27.40
2018-09-05T09:16:35.777Z,27.50
2018-09-05T09:19:04.841Z,27.90
2018-09-05T09:21:33.703Z,28.00
2018-09-05T09:24:24.227Z,28.30
2018-09-05T09:26:53.474Z,28.10
2018-09-05T09:29:22.352Z,28.10
2018-09-05T09:31:51.182Z,28.40
2018-09-05T09:34:19.993Z,28.60
2018-09-05T09:36:48.783Z,28.80
2018-09-05T09:39:17.589Z,28.90
2018-09-05T09:41:46.286Z,29.20
2018-09-05T09:44:15.057Z,29.40
2018-09-05T09:46:43.858Z,29.50
2018-09-05T09:49:12.444Z,29.50
2018-09-05T09:51:41.217Z,29.20
2018-09-05T09:54:10.001Z,29.50
2018-09-05T09:56:38.852Z,29.80
2018-09-05T09:59:07.526Z,30.20
2018-09-05T10:01:41.605Z,30.20
2018-09-05T10:04:16.011Z,30.30
2018-09-05T10:06:54.999Z,30.50
2018-09-05T10:11:32.782Z,30.90
2018-09-05T10:14:06.741Z,31.80
2018-09-05T10:16:44.796Z,33.60
2018-09-05T10:19:13.817Z,34.20
2018-09-05T10:21:42.624Z,35.20
2018-09-05T10:24:11.369Z,36.30
2018-09-05T10:26:40.094Z,36.70
2018-09-05T10:29:08.907Z,37.10
2018-09-05T10:31:38.675Z,37.30
2018-09-05T10:34:07.913Z,37.80
2018-09-05T10:36:36.727Z,38.60
2018-09-05T10:39:08.178Z,38.80
2018-09-05T10:41:36.913Z,38.70
2018-09-05T10:44:06.054Z,38.50
2018-09-05T10:46:35.022Z,39.10
2018-09-05T10:49:03.895Z,40.00
2018-09-05T10:51:37.992Z,40.50
2018-09-05T10:54:07.024Z,40.70
2018-09-05T10:56:36.480Z,41.00
2018-09-05T10:59:05.282Z,40.90
2018-09-05T11:01:33.988Z,40.80
2018-09-05T11:04:02.829Z,40.40
2018-09-05T11:06:31.544Z,39.50
2018-09-05T11:09:00.302Z,39.30
2018-09-05T11:11:29.085Z,38.80
2018-09-05T11:13:57.750Z,39.70
2018-09-05T11:16:26.558Z,40.90
2018-09-05T11:18:55.256Z,41.00
2018-09-05T11:21:27.167Z,41.30
2018-09-05T11:23:57.587Z,41.90
2018-09-05T11:26:26.343Z,40.20
2018-09-05T11:28:55.223Z,40.70
2018-09-05T11:31:23.949Z,41.60
2018-09-05T11:33:52.672Z,41.50
2018-09-05T11:36:21.653Z,41.90
2018-09-05T11:38:50.550Z,42.60
2018-09-05T11:41:19.389Z,42.90
2018-09-05T11:43:48.512Z,42.40
2018-09-05T11:46:17.245Z,40.20
2018-09-05T11:48:46.008Z,38.20
2018-09-05T11:51:15.034Z,36.60
2018-09-05T11:53:43.747Z,35.00
2018-09-05T11:56:12.514Z,34.00
2018-09-05T11:58:41.210Z,33.70
2018-09-05T12:01:09.959Z,33.70
2018-09-05T12:03:38.623Z,33.40
2018-09-05T12:06:07.542Z,33.10
2018-09-05T12:08:36.394Z,32.90
2018-09-05T12:11:05.060Z,32.90
2018-09-05T12:13:33.774Z,32.60
2018-09-05T12:16:02.588Z,32.20
2018-09-05T12:18:31.365Z,31.20
2018-09-05T12:21:00.015Z,30.40
2018-09-05T12:23:29.074Z,30.30
2018-09-05T12:25:57.794Z,30.20
2018-09-05T12:28:26.542Z,30.30
2018-09-05T12:30:55.299Z,30.30
2018-09-05T12:33:24.053Z,30.40
2018-09-05T12:35:52.811Z,30.40
2018-09-05T12:38:21.576Z,30.10
2018-09-05T12:40:50.183Z,30.20
2018-09-05T12:43:18.918Z,30.20
2018-09-05T12:45:47.655Z,30.10
2018-09-05T12:48:18.516Z,29.90
2018-09-05T12:50:47.363Z,30.00
2018-09-05T12:53:16.051Z,30.10
2018-09-05T12:56:19.854Z,30.10
2018-09-05T12:58:48.605Z,30.20
2018-09-05T13:01:17.472Z,30.50
2018-09-05T13:03:46.217Z,30.70
2018-09-05T13:06:14.941Z,31.10
2018-09-05T13:08:43.745Z,31.40
2018-09-05T13:11:12.551Z,31.70
2018-09-05T13:13:41.499Z,31.90
2018-09-05T13:16:10.338Z,31.90
2018-09-05T13:18:39.120Z,31.50
2018-09-05T13:21:07.907Z,31.40
2018-09-05T13:23:36.662Z,31.30
2018-09-05T13:26:05.450Z,31.30
2018-09-05T13:28:34.194Z,31.40
2018-09-05T13:31:02.887Z,31.40
2018-09-05T13:33:31.654Z,31.40
2018-09-05T13:36:00.474Z,31.30
2018-09-05T13:38:31.369Z,31.30
2018-09-05T13:41:02.350Z,31.10
2018-09-05T13:43:31.114Z,31.00
2018-09-05T13:45:59.873Z,30.90
2018-09-05T13:48:28.685Z,30.80
2018-09-05T13:50:57.528Z,30.70
2018-09-05T13:53:26.261Z,30.70
2018-09-05T13:55:55.193Z,30.40
2018-09-05T13:58:23.946Z,30.50
2018-09-05T14:00:52.721Z,30.50
2018-09-05T14:03:21.585Z,30.70
2018-09-05T14:05:50.458Z,30.80
2018-09-05T14:08:19.282Z,30.90
2018-09-05T14:10:48.245Z,30.90
2018-09-05T14:13:16.973Z,30.80
2018-09-05T14:15:45.711Z,30.70
2018-09-05T14:18:14.657Z,30.70
2018-09-05T14:20:43.469Z,30.70
2018-09-05T14:23:12.197Z,30.60
2018-09-05T14:25:40.878Z,30.70
2018-09-05T14:28:09.719Z,30.60
2018-09-05T14:30:38.512Z,30.50
2018-09-05T14:33:06.892Z,30.30
2018-09-05T14:35:35.672Z,30.40
2018-09-05T14:38:04.450Z,30.80
2018-09-05T14:40:33.345Z,31.00
2018-09-05T14:43:02.173Z,30.50
2018-09-05T14:45:31.113Z,30.30
2018-09-05T14:47:59.898Z,29.70
2018-09-05T14:50:28.637Z,29.60
2018-09-05T14:52:57.312Z,29.40
2018-09-05T14:55:26.003Z,29.30
2018-09-05T14:57:54.755Z,29.10
2018-09-05T15:00:23.494Z,28.80
2018-09-05T15:02:52.254Z,28.90
2018-09-05T15:05:20.954Z,28.90
2018-09-05T15:07:50.693Z,28.90
2018-09-05T15:10:19.451Z,28.80
2018-09-05T15:12:48.218Z,28.90
2018-09-05T15:15:17.406Z,29.00
2018-09-05T15:17:46.267Z,29.20
2018-09-05T15:20:15.117Z,29.30
2018-09-05T15:22:44.849Z,29.40
2018-09-05T15:25:13.576Z,29.50
2018-09-05T15:27:42.282Z,29.60
2018-09-05T15:30:11.186Z,29.50
2018-09-05T15:32:39.932Z,29.30
2018-09-05T15:35:08.673Z,29.40
2018-09-05T15:37:37.372Z,29.50
2018-09-05T15:40:06.318Z,29.60
2018-09-05T15:42:35.061Z,29.70
2018-09-05T15:45:03.828Z,29.90
2018-09-05T15:47:32.676Z,30.00
2018-09-05T15:50:01.449Z,29.70
2018-09-05T15:52:30.162Z,29.60
2018-09-05T15:54:58.947Z,29.80
2018-09-05T15:57:27.804Z,30.10
2018-09-05T15:59:56.524Z,30.50
2018-09-05T16:02:25.277Z,31.00
2018-09-05T16:04:54.059Z,31.30
2018-09-05T16:07:22.834Z,31.50
2018-09-05T16:09:51.601Z,31.90
2018-09-05T16:12:20.410Z,31.70
2018-09-05T16:14:49.221Z,31.60
2018-09-05T16:17:18.027Z,31.40
2018-09-05T16:19:46.800Z,31.30
2018-09-05T16:22:15.765Z,31.10
2018-09-05T16:24:44.409Z,31.00
2018-09-05T16:27:13.101Z,30.80
2018-09-05T16:29:41.919Z,30.50
2018-09-05T16:32:10.600Z,30.30
2018-09-05T16:34:39.284Z,30.20
2018-09-05T16:37:07.953Z,30.00
2018-09-05T16:39:36.685Z,29.90
2018-09-05T16:42:05.442Z,29.60
2018-09-05T16:44:34.144Z,29.50
2018-09-05T16:47:02.845Z,29.40
2018-09-05T16:49:31.754Z,29.30
2018-09-05T16:52:00.410Z,29.20
2018-09-05T16:54:29.159Z,29.20
2018-09-05T16:56:57.887Z,29.10
2018-09-05T16:59:26.617Z,29.10
2018-09-05T17:01:55.341Z,29.00
2018-09-05T17:04:24.040Z,28.80
2018-09-05T17:06:52.856Z,28.70
2018-09-05T17:09:21.570Z,28.70
2018-09-05T17:11:50.341Z,28.70
2018-09-05T17:14:19.027Z,28.60
2018-09-05T17:16:47.689Z,28.50
2018-09-05T17:19:16.433Z,28.40
2018-09-05T17:21:45.130Z,28.30
2018-09-05T17:24:13.849Z,28.30
2018-09-05T17:26:42.542Z,28.20
2018-09-05T17:29:11.229Z,28.20
2018-09-05T17:31:40.081Z,28.20
2018-09-05T17:34:09.033Z,28.00
2018-09-05T17:36:37.775Z,28.00
2018-09-05T17:39:08.861Z,27.90
2018-09-05T17:41:37.605Z,27.80
2018-09-05T17:44:06.696Z,27.70
2018-09-05T17:46:35.484Z,27.50
2018-09-05T17:49:04.355Z,27.30
2018-09-05T17:51:33.219Z,27.10
2018-09-05T17:54:02.103Z,26.80
2018-09-05T17:56:30.921Z,26.70
2018-09-05T17:59:05.048Z,26.50
2018-09-05T18:01:34.019Z,26.40
2018-09-05T18:04:02.701Z,26.20
2018-09-05T18:06:31.603Z,26.10
2018-09-05T18:09:00.339Z,26.00
2018-09-05T18:11:29.050Z,25.90
2018-09-05T18:13:57.757Z,25.90
2018-09-05T18:16:26.487Z,25.70
2018-09-05T18:18:55.284Z,25.70
2018-09-05T18:21:24.069Z,25.60
2018-09-05T18:23:54.437Z,25.60
2018-09-05T18:26:23.283Z,25.60
2018-09-05T18:28:52.109Z,25.50
2018-09-05T18:31:20.952Z,25.50
2018-09-05T18:33:51.893Z,25.30
2018-09-05T18:36:22.791Z,25.20
2018-09-05T18:38:51.574Z,25.10
2018-09-05T18:41:20.300Z,25.00
2018-09-05T18:43:49.063Z,24.90
2018-09-05T18:46:17.734Z,24.90
2018-09-05T18:48:46.439Z,24.80
2018-09-05T18:51:15.187Z,24.70
2018-09-05T18:53:43.885Z,24.70
2018-09-05T18:56:12.651Z,24.70
2018-09-05T18:58:41.401Z,24.60
2018-09-05T19:01:10.152Z,24.50
2018-09-05T19:03:38.980Z,24.50
2018-09-05T19:06:07.691Z,24.30
2018-09-05T19:08:36.509Z,24.20
2018-09-05T19:11:05.319Z,24.20
2018-09-05T19:13:34.125Z,24.10
2018-09-05T19:16:02.974Z,24.00
2018-09-05T19:18:31.799Z,23.80
2018-09-05T19:21:00.539Z,23.90
2018-09-05T19:23:29.401Z,23.90
2018-09-05T19:25:58.128Z,23.90
2018-09-05T19:28:26.931Z,23.90
2018-09-05T19:30:55.649Z,23.90
2018-09-05T19:33:24.403Z,23.80
2018-09-05T19:35:53.104Z,23.80
2018-09-05T19:38:21.829Z,23.80
2018-09-05T19:40:50.562Z,23.70
2018-09-05T19:43:19.268Z,23.60
2018-09-05T19:45:48.038Z,23.70
2018-09-05T19:48:16.791Z,23.60
2018-09-05T19:50:45.609Z,23.40
2018-09-05T19:53:14.400Z,23.40
2018-09-05T19:55:43.199Z,23.40
2018-09-05T19:58:11.901Z,23.40
2018-09-05T20:00:40.611Z,23.30
2018-09-05T20:03:14.686Z,23.30
2018-09-05T20:05:48.600Z,23.20
2018-09-05T20:08:17.318Z,23.20
2018-09-05T20:10:45.963Z,23.20
2018-09-05T20:13:14.812Z,23.20
2018-09-05T20:15:43.598Z,23.10
2018-09-05T20:18:12.578Z,23.10
2018-09-05T20:20:41.342Z,23.00
2018-09-05T20:23:10.185Z,23.00
2018-09-05T20:25:38.950Z,23.00
2018-09-05T20:28:07.736Z,23.00
2018-09-05T20:30:36.457Z,22.90
2018-09-05T20:33:05.287Z,22.80
2018-09-05T20:35:33.975Z,22.80
2018-09-05T20:38:02.785Z,22.70
2018-09-05T20:40:31.498Z,22.70
2018-09-05T20:43:00.220Z,22.70
2018-09-05T20:45:28.950Z,22.70
2018-09-05T20:47:57.755Z,22.70
2018-09-05T20:50:26.466Z,22.70
2018-09-05T20:52:55.161Z,22.60
2018-09-05T20:55:23.907Z,22.60
2018-09-05T20:57:52.629Z,22.50
2018-09-05T21:00:21.372Z,22.40
2018-09-05T21:02:50.021Z,22.40
2018-09-05T21:05:18.745Z,22.50
2018-09-05T21:07:47.453Z,22.40
2018-09-05T21:10:16.163Z,22.40
2018-09-05T21:12:44.916Z,22.50
2018-09-05T21:15:13.701Z,22.20
2018-09-05T21:17:42.445Z,22.20
2018-09-05T21:20:11.206Z,22.20
2018-09-05T21:22:39.934Z,22.20
2018-09-05T21:25:08.700Z,22.00
2018-09-05T21:27:37.405Z,22.10
2018-09-05T21:30:06.121Z,22.00
2018-09-05T21:32:34.834Z,21.90
2018-09-05T21:35:03.597Z,21.90
2018-09-05T21:37:32.314Z,21.80
2018-09-05T21:40:01.134Z,21.80
2018-09-05T21:42:29.873Z,21.80
2018-09-05T21:44:58.622Z,21.80
2018-09-05T21:47:27.370Z,21.90
2018-09-05T21:49:56.146Z,21.80
2018-09-05T21:52:24.859Z,21.70
2018-09-05T21:54:53.619Z,21.70
2018-09-05T21:57:22.288Z,21.60
2018-09-05T21:59:51.013Z,21.60
2018-09-05T22:02:19.700Z,21.60
2018-09-05T22:04:48.366Z,21.60
2018-09-05T22:07:17.086Z,21.50
2018-09-05T22:09:45.749Z,21.50
2018-09-05T22:12:23.056Z,21.60
2018-09-05T22:14:51.702Z,21.50
2018-09-05T22:17:20.448Z,21.50
2018-09-05T22:19:49.097Z,21.50
2018-09-05T22:22:17.849Z,21.50
2018-09-05T22:24:46.606Z,21.50
2018-09-05T22:27:15.317Z,21.40
2018-09-05T22:29:44.047Z,21.20
2018-09-05T22:32:12.812Z,21.20
2018-09-05T22:34:41.512Z,21.20
2018-09-05T22:37:10.183Z,21.20
2018-09-05T22:39:38.925Z,21.30
2018-09-05T22:42:07.633Z,21.30
2018-09-05T22:44:47.398Z,21.10
2018-09-05T22:47:27.307Z,21.10
2018-09-05T22:50:15.129Z,21.10
2018-09-05T22:55:00.778Z,21.10
2018-09-05T22:58:03.485Z,21.00
2018-09-05T23:00:43.635Z,20.90
2018-09-05T23:03:23.387Z,20.80
2018-09-05T23:07:04.654Z,20.70
2018-09-05T23:09:44.596Z,20.70
2018-09-05T23:12:26.459Z,20.60
2018-09-05T23:15:07.072Z,20.60
2018-09-05T23:19:53.411Z,20.60
2018-09-05T23:22:22.253Z,20.50
2018-09-05T23:24:50.935Z,20.40
2018-09-05T23:27:19.695Z,20.40
2018-09-05T23:29:48.438Z,20.30
2018-09-05T23:32:17.143Z,20.20
2018-09-05T23:34:45.834Z,20.20
2018-09-05T23:37:14.577Z,20.20
2018-09-05T23:39:43.266Z,20.30
2018-09-05T23:42:12.007Z,20.20
2018-09-05T23:44:40.687Z,20.20
2018-09-05T23:47:09.440Z,20.10
2018-09-05T23:49:38.113Z,20.10
2018-09-05T23:52:06.869Z,20.00
2018-09-05T23:54:35.603Z,19.90
2018-09-05T23:57:04.370Z,19.90
2018-09-05T23:59:33.068Z,19.90
